»·PEaware :: N6870P KCMA-KSNA

N6870P :: KCMA-KSNA

FLIGHT INFORMATION

Flight Status: Arrived
Operator: Privately registered:
United States
More flights under this callsign
Pilot: Larry J. (31147)
Aircraft: PIPER PA-24 COMMANCHE
(PA24)
More flights by this aircraft type
Origin: KCMA Camarillo
United States
Destination: KSNA John Wayne-Orange Co
United States
More flights between these airports :: More routes between these airports
Route: LAX COASTAL ROUTE TO KSNA
File this flight plan on PilotEdge
Remarks:
Altitude:
(Current/Filed)
5,500ft
Speed:
(Current/Filed)
125kts
Departed: 30-Sep-20 07:53 AM
Arrived: 30-Sep-20 08:37 AM
Distance/Time
Traveled:
69nm/0:44
Distance/Time
To Go:
Arrived

Flight Plot

Page will automatically refresh every two minutes.

Flight plan parsing failed; only flown route is shown


Map Options




Map Legend


Flown Route
Filed Route
Departure Airport
Arrival Airport
Navaid (VOR, NDB)
Fix

Horizontal Profiles

Position Reports

Time Latitude Longitude Heading Altitude Ground
Speed
30-Sep-20 07:33 34.210350 -119.076483 90 77ft 0kts
30-Sep-20 07:34 34.210350 -119.076483 90 77ft 0kts
30-Sep-20 07:35 34.210350 -119.076483 90 77ft 0kts
30-Sep-20 07:36 34.210350 -119.076483 90 77ft 0kts
30-Sep-20 07:37 34.210350 -119.076483 90 77ft 0kts
30-Sep-20 07:38 34.210350 -119.076483 90 77ft 0kts
30-Sep-20 07:39 34.210350 -119.076483 90 77ft 0kts
30-Sep-20 07:40 34.210350 -119.076483 90 77ft 0kts
30-Sep-20 07:41 34.210350 -119.076483 90 77ft 0kts
30-Sep-20 07:42 34.210350 -119.076483 90 77ft 0kts
30-Sep-20 07:43 34.210350 -119.076483 90 77ft 0kts
30-Sep-20 07:44 34.210350 -119.076483 90 77ft 0kts
30-Sep-20 07:45 34.210350 -119.076483 90 77ft 0kts
30-Sep-20 07:46 34.210592 -119.076421 319 77ft 2kts
30-Sep-20 07:47 34.210860 -119.078830 274 76ft 13kts
30-Sep-20 07:48 34.210893 -119.083620 270 73ft 10kts
30-Sep-20 07:49 34.212462 -119.084616 0 73ft 0kts
30-Sep-20 07:50 34.212462 -119.084616 0 73ft 0kts
30-Sep-20 07:51 34.213706 -119.085281 271 74ft 13kts
30-Sep-20 07:52 34.215377 -119.106640 275 547ft 100kts
30-Sep-20 07:53 34.229374 -119.104242 91 1362ft 113kts
30-Sep-20 07:54 34.228554 -119.061812 86 2598ft 135kts
30-Sep-20 07:55 34.229445 -119.016577 86 3888ft 134kts
30-Sep-20 07:56 34.229826 -118.971858 87 5175ft 135kts
30-Sep-20 07:57 34.230312 -118.920564 88 5485ft 155kts
30-Sep-20 07:58 34.230871 -118.871706 87 5492ft 151kts
30-Sep-20 07:59 34.231459 -118.819910 87 5490ft 156kts
30-Sep-20 08:00 34.232037 -118.768690 88 5488ft 145kts
30-Sep-20 08:01 34.232546 -118.720795 87 5489ft 139kts
30-Sep-20 08:02 34.233008 -118.674552 87 5490ft 137kts
30-Sep-20 08:03 34.233388 -118.628416 87 5490ft 136kts
30-Sep-20 08:04 34.213003 -118.592592 139 5489ft 136kts
30-Sep-20 08:05 34.181934 -118.566223 146 5490ft 138kts
30-Sep-20 08:06 34.147749 -118.542977 151 5490ft 143kts
30-Sep-20 08:07 34.111986 -118.521897 153 5490ft 143kts
30-Sep-20 08:08 34.075420 -118.502122 155 5490ft 144kts
30-Sep-20 08:09 34.038477 -118.483012 155 5490ft 144kts
30-Sep-20 08:10 34.001626 -118.464655 156 5488ft 139kts
30-Sep-20 08:11 33.966408 -118.447295 156 5489ft 135kts
30-Sep-20 08:12 33.931523 -118.430200 155 5490ft 135kts
30-Sep-20 08:13 33.902023 -118.403340 134 5490ft 134kts
30-Sep-20 08:14 33.875294 -118.371574 133 5489ft 134kts
30-Sep-20 08:15 33.848573 -118.339871 132 5492ft 134kts
30-Sep-20 08:16 33.833383 -118.299988 88 5482ft 135kts
30-Sep-20 08:17 33.824751 -118.257693 103 5482ft 115kts
30-Sep-20 08:18 33.817995 -118.220092 116 5448ft 120kts
30-Sep-20 08:19 33.807143 -118.183205 113 5496ft 118kts
30-Sep-20 08:20 33.794065 -118.146736 107 5503ft 117kts
30-Sep-20 08:21 33.782508 -118.109561 106 5490ft 118kts
30-Sep-20 08:22 33.774787 -118.070714 107 5113ft 115kts
30-Sep-20 08:23 33.763452 -118.035173 115 3830ft 115kts
30-Sep-20 08:24 33.752604 -118.003527 109 3375ft 99kts
30-Sep-20 08:25 33.747366 -117.972427 94 3114ft 110kts
30-Sep-20 08:26 33.723611 -117.959606 194 2399ft 110kts
30-Sep-20 08:27 33.706774 -117.939347 99 1538ft 120kts
30-Sep-20 08:28 33.697463 -117.907045 114 1457ft 94kts
30-Sep-20 08:29 33.684657 -117.881048 126 1485ft 89kts
30-Sep-20 08:30 33.668794 -117.856284 117 1488ft 95kts
30-Sep-20 08:31 33.677988 -117.832771 21 1375ft 96kts
30-Sep-20 08:32 33.699935 -117.830188 304 694ft 89kts
30-Sep-20 08:33 33.708393 -117.845256 199 419ft 71kts
30-Sep-20 08:34 33.695144 -117.853542 268 640ft 91kts
30-Sep-20 08:35 33.679058 -117.864788 204 77ft 66kts
30-Sep-20 08:36 33.674445 -117.867657 213 58ft 15kts
30-Sep-20 08:37 33.675370 -117.869075 328 58ft 8kts

Navigation Log

Ident Type
Flight plan parsing failed, navigation log unavailable